Avondale, Colorado
Current Conditions -  °F | °C
As of 8:53 AM on Thursday 30 Oct 2014 (Local Time) from KPUB Reporting Station
Clear Clear  
Wind Chill:   Ceiling: Unl
Heat Index:   Visibility: 10mi
Dew Point: -3°   Wind: 6mph
Humidity: 48%   Direction: 240°WSW
Pressure: 30.37"   Gusts: NA
Location:  38.24°N, 104.35°W
Report Text: KPUB 301453Z 24005KT 10SM CLR 07/M03 A3037 RMK AO2 SLP269 T00721033 51021
Loading
Personal Weather Stations






























Interactive Weather Map
Tropical Storm Tracking
New forecast layout! Learn more

10-Day Weather Forecast

Advertisements
Track Severe Weather on mobile